createdAt,value
2017-04-09T00:00:48.103Z,13.95
2017-04-09T00:03:11.667Z,13.87
2017-04-09T00:05:35.236Z,13.75
2017-04-09T00:07:58.712Z,13.67
2017-04-09T00:10:13.910Z,13.52
2017-04-09T00:12:37.354Z,13.46
2017-04-09T00:15:00.873Z,13.55
2017-04-09T00:17:24.287Z,13.55
2017-04-09T00:19:47.677Z,13.42
2017-04-09T00:22:11.213Z,13.57
2017-04-09T00:24:34.648Z,13.6
2017-04-09T00:26:58.149Z,13.45
2017-04-09T00:29:21.643Z,13.47
2017-04-09T00:31:45.012Z,13.45
2017-04-09T00:34:08.451Z,13.49
2017-04-09T00:36:31.952Z,13.26
2017-04-09T00:38:33.103Z,13.49
2017-04-09T00:40:56.638Z,13.16
2017-04-09T00:43:20.096Z,13.31
2017-04-09T00:45:43.569Z,13.24
2017-04-09T00:47:58.637Z,13.2
2017-04-09T00:50:22.108Z,13.13
2017-04-09T00:52:14.977Z,13.12
2017-04-09T00:54:38.522Z,13.06
2017-04-09T00:57:01.887Z,12.86
2017-04-09T00:59:03.258Z,12.95
2017-04-09T01:01:04.504Z,13.01
2017-04-09T01:03:28.050Z,13.19
2017-04-09T01:05:51.517Z,13.01
2017-04-09T01:08:06.590Z,13.02
2017-04-09T01:10:30.058Z,13.06
2017-04-09T01:12:53.524Z,13.21
2017-04-09T01:15:16.992Z,13.26
2017-04-09T01:17:40.457Z,13.17
2017-04-09T01:20:03.926Z,13.23
2017-04-09T01:22:13.605Z,13.36
2017-04-09T01:24:37.141Z,13.37
2017-04-09T01:27:00.609Z,13.26
2017-04-09T01:29:24.070Z,13.33
2017-04-09T01:31:39.142Z,13.12
2017-04-09T01:34:02.612Z,13.31
2017-04-09T01:36:17.686Z,13.23
2017-04-09T01:38:41.151Z,12.94
2017-04-09T01:40:56.122Z,13.17
2017-04-09T01:43:05.780Z,13.16
2017-04-09T01:45:29.332Z,13.2
2017-04-09T01:47:52.803Z,13.27
2017-04-09T01:50:16.265Z,13.19
2017-04-09T01:52:39.734Z,13.13
2017-04-09T01:55:03.213Z,12.87
2017-04-09T01:57:26.662Z,12.87
2017-04-09T01:59:41.736Z,12.8
2017-04-09T02:02:05.206Z,12.73
2017-04-09T02:03:58.469Z,12.68
2017-04-09T02:06:13.540Z,12.55
2017-04-09T02:08:37.003Z,12.57
2017-04-09T02:11:00.472Z,12.63
2017-04-09T02:13:10.115Z,12.83
2017-04-09T02:15:11.247Z,12.55
2017-04-09T02:17:34.722Z,12.55
2017-04-09T02:19:58.195Z,12.21
2017-04-09T02:22:13.265Z,11.93
2017-04-09T02:24:36.730Z,12.11
2017-04-09T02:27:00.197Z,11.95
2017-04-09T02:29:23.662Z,11.95
2017-04-09T02:31:24.899Z,12
2017-04-09T02:33:48.274Z,12
2017-04-09T02:36:11.673Z,11.85
2017-04-09T02:38:35.004Z,11.96
2017-04-09T02:40:36.150Z,12
2017-04-09T02:42:59.613Z,11.83
2017-04-09T02:45:14.580Z,11.65
2017-04-09T02:47:29.552Z,11.53
2017-04-09T02:49:44.518Z,11.71
2017-04-09T02:52:07.884Z,11.38
2017-04-09T02:54:31.251Z,11.37
2017-04-09T02:56:54.615Z,11.49
2017-04-09T02:59:17.979Z,11.58
2017-04-09T03:01:41.244Z,11.52
2017-04-09T03:04:04.605Z,11.37
2017-04-09T03:06:27.978Z,11.41
2017-04-09T03:08:51.346Z,11.62
2017-04-09T03:11:14.700Z,11.55
2017-04-09T03:13:38.067Z,11.63
2017-04-09T03:15:53.042Z,11.51
2017-04-09T03:18:16.401Z,11.3
2017-04-09T03:20:39.764Z,11.53
2017-04-09T03:23:03.134Z,11.3
2017-04-09T03:25:26.497Z,11.4
2017-04-09T03:27:49.870Z,11.43
2017-04-09T03:30:13.228Z,11.45
2017-04-09T03:32:28.939Z,11.4
2017-04-09T03:34:51.560Z,11.52
2017-04-09T03:37:07.449Z,11.45
2017-04-09T03:39:30.815Z,11.16
2017-04-09T03:41:54.182Z,10.97
2017-04-09T03:44:09.145Z,11.19
2017-04-09T03:46:35.478Z,10.98
2017-04-09T03:48:58.846Z,11.07
2017-04-09T03:51:22.209Z,11.05
2017-04-09T03:53:37.180Z,11.27
2017-04-09T03:56:03.433Z,10.9
2017-04-09T03:58:31.935Z,10.59
2017-04-09T04:00:55.451Z,10.42
2017-04-09T04:03:18.013Z,10.69
2017-04-09T04:05:41.387Z,10.65
2017-04-09T04:08:05.856Z,10.86
2017-04-09T04:10:29.948Z,10.77
2017-04-09T04:12:54.341Z,10.27
2017-04-09T04:15:10.443Z,10.46
2017-04-09T04:17:34.436Z,10.59
2017-04-09T04:19:56.550Z,10.48
2017-04-09T04:22:12.130Z,10.55
2017-04-09T04:24:37.445Z,10.72
2017-04-09T04:27:01.323Z,10.67
2017-04-09T04:29:24.584Z,10.9
2017-04-09T04:31:39.449Z,10.68
2017-04-09T04:33:54.315Z,10.53
2017-04-09T04:36:17.579Z,10.41
2017-04-09T04:38:40.842Z,10.3
2017-04-09T04:41:06.438Z,10.3
2017-04-09T04:43:31.443Z,10.38
2017-04-09T04:45:54.415Z,10.18
2017-04-09T04:48:09.949Z,10.06
2017-04-09T04:50:32.552Z,10.24
2017-04-09T04:52:47.410Z,10.38
2017-04-09T04:55:10.674Z,10.38
2017-04-09T04:57:33.937Z,10.53
2017-04-09T04:59:59.855Z,10.87
2017-04-09T05:02:09.965Z,11.04
2017-04-09T05:04:34.205Z,11.1
2017-04-09T05:07:02.281Z,10.89
2017-04-09T05:09:31.778Z,10.65
2017-04-09T05:11:58.271Z,10.68
2017-04-09T05:14:19.852Z,11.31
2017-04-09T05:16:45.272Z,12.55
2017-04-09T05:19:32.775Z,13.86
2017-04-09T05:22:14.080Z,14.85
2017-04-09T05:24:38.880Z,16.24
2017-04-09T05:27:02.447Z,17.76
2017-04-09T05:29:26.118Z,19.01
2017-04-09T05:31:49.891Z,20.21
2017-04-09T05:34:13.772Z,21.14
2017-04-09T05:36:37.750Z,21.74
2017-04-09T05:39:01.832Z,22.15
2017-04-09T05:41:17.413Z,23.55
2017-04-09T05:43:33.098Z,23.45
2017-04-09T05:45:40.488Z,23.08
2017-04-09T05:48:04.787Z,25.12
2017-04-09T05:50:29.169Z,26.19
2017-04-09T05:52:53.675Z,27.4
2017-04-09T05:55:03.738Z,26.04
2017-04-09T05:57:28.404Z,26.61
2017-04-09T05:59:53.099Z,25.55
2017-04-09T06:02:17.830Z,27.15
2017-04-09T06:04:42.600Z,29.21
2017-04-09T06:07:07.501Z,30.88
2017-04-09T06:09:32.617Z,32.95
2017-04-09T06:11:57.710Z,33.72
2017-04-09T06:14:22.919Z,34.33
2017-04-09T06:16:39.730Z,35.15
2017-04-09T06:19:05.040Z,35.91
2017-04-09T06:21:30.451Z,36.82
2017-04-09T06:23:49.800Z,37.86
2017-04-09T06:26:15.355Z,37.21
2017-04-09T06:28:34.289Z,37.57
2017-04-09T06:30:51.422Z,37.44
2017-04-09T06:33:08.538Z,39.45
2017-04-09T06:35:10.836Z,39.6
2017-04-09T06:37:36.534Z,39.59
2017-04-09T06:39:53.563Z,38.53
2017-04-09T06:42:19.061Z,35.37
2017-04-09T06:44:44.460Z,32.22
2017-04-09T06:46:55.278Z,30.83
2017-04-09T06:49:20.549Z,30.05
2017-04-09T06:51:45.762Z,33.2
2017-04-09T06:54:10.973Z,35.94
2017-04-09T06:56:36.179Z,37.43
2017-04-09T06:59:02.578Z,39.57
2017-04-09T07:01:29.001Z,41.55
2017-04-09T07:03:54.503Z,41.11
2017-04-09T07:06:20.255Z,44.14
2017-04-09T07:08:45.716Z,44.1
2017-04-09T07:11:11.776Z,42.82
2017-04-09T07:13:37.849Z,42.7
2017-04-09T07:16:04.089Z,45.13
2017-04-09T07:18:30.440Z,46.68
2017-04-09T07:20:57.172Z,46.55
2017-04-09T07:23:23.811Z,47.86
2017-04-09T07:25:50.453Z,48.89
2017-04-09T07:28:17.639Z,48.22
2017-04-09T07:30:36.191Z,48.45
2017-04-09T07:33:42.635Z,49.75
2017-04-09T07:36:02.511Z,49.62
2017-04-09T07:38:29.931Z,45.48
2017-04-09T07:40:57.115Z,39.78
2017-04-09T07:43:24.792Z,38.7
2017-04-09T07:45:51.819Z,37.34
2017-04-09T07:48:19.029Z,36.82
2017-04-09T07:50:46.414Z,35.72
2017-04-09T07:53:13.474Z,35.96
2017-04-09T07:55:40.417Z,36.25
2017-04-09T07:58:08.050Z,35.84
2017-04-09T08:00:34.548Z,35.75
2017-04-09T08:03:01.010Z,33.97
2017-04-09T08:05:27.157Z,34.24
2017-04-09T08:07:53.023Z,34.71
2017-04-09T08:10:19.014Z,34.43
2017-04-09T08:12:44.842Z,33.39
2017-04-09T08:15:12.625Z,33.67
2017-04-09T08:17:29.639Z,33.45
2017-04-09T08:19:55.278Z,34.55
2017-04-09T08:22:21.198Z,33.73
2017-04-09T08:24:39.750Z,33.72
2017-04-09T08:29:55.226Z,35.16
2017-04-09T08:32:31.399Z,35.59
2017-04-09T08:34:58.562Z,34.96
2017-04-09T08:37:28.851Z,34
2017-04-09T08:39:57.216Z,34.1
2017-04-09T08:46:54.134Z,33.47
2017-04-09T08:49:11.212Z,34.76
2017-04-09T08:50:51.070Z,34.82
2017-04-09T08:53:14.241Z,33.31
2017-04-09T08:55:42.576Z,33.08
2017-04-09T08:57:33.599Z,33.88
2017-04-09T09:00:00.971Z,34.06
2017-04-09T09:02:38.568Z,33.54
2017-04-09T09:05:12.499Z,34.26
2017-04-09T09:07:42.402Z,33.76
2017-04-09T09:10:27.766Z,34.09
2017-04-09T09:12:55.629Z,34.03
2017-04-09T09:15:28.854Z,33.67
2017-04-09T09:17:57.329Z,33.58
2017-04-09T09:19:52.300Z,33.38
2017-04-09T09:22:22.326Z,31.97
2017-04-09T09:26:37.107Z,31.98
2017-04-09T09:30:53.266Z,32.42
2017-04-09T09:33:19.094Z,32.85
2017-04-09T09:35:44.826Z,31.89
2017-04-09T09:38:10.788Z,31.51
2017-04-09T09:40:36.407Z,32.35
2017-04-09T09:43:02.300Z,33
2017-04-09T09:45:21.185Z,33.31
2017-04-09T09:47:46.614Z,32.79
2017-04-09T09:50:14.328Z,32.08
2017-04-09T09:52:40.506Z,28.7
2017-04-09T09:55:05.575Z,30.14
2017-04-09T09:57:32.327Z,30.06
2017-04-09T09:59:57.434Z,30.11
2017-04-09T10:02:22.617Z,29.68
2017-04-09T10:04:47.622Z,29.74
2017-04-09T10:07:13.011Z,30.03
2017-04-09T10:08:49.139Z,30.4
2017-04-09T10:11:14.456Z,29.89
2017-04-09T10:13:43.122Z,30.7
2017-04-09T10:16:08.130Z,30.69
2017-04-09T10:18:34.349Z,30.78
2017-04-09T10:20:59.484Z,29.86
2017-04-09T10:23:24.559Z,28.96
2017-04-09T10:25:50.476Z,28.35
2017-04-09T10:28:15.476Z,28.1
2017-04-09T10:30:40.460Z,29.25
2017-04-09T10:33:12.302Z,29.74
2017-04-09T10:35:37.570Z,29.58
2017-04-09T10:38:02.446Z,29.76
2017-04-09T10:40:27.336Z,29.46
2017-04-09T10:42:52.268Z,29.95
2017-04-09T10:45:17.237Z,30.36
2017-04-09T10:47:42.269Z,29.42
2017-04-09T10:50:07.515Z,29.5
2017-04-09T10:52:33.181Z,29.87
2017-04-09T10:54:58.213Z,30.24
2017-04-09T10:57:22.979Z,29.84
2017-04-09T10:59:47.878Z,29.49
2017-04-09T11:02:12.776Z,28.3
2017-04-09T11:04:37.689Z,28.06
2017-04-09T11:07:02.483Z,28.67
2017-04-09T11:09:27.369Z,29.02
2017-04-09T11:11:52.188Z,28.41
2017-04-09T11:14:16.989Z,27.95
2017-04-09T11:16:41.808Z,28.4
2017-04-09T11:19:06.580Z,28.37
2017-04-09T11:21:31.265Z,28.13
2017-04-09T11:23:55.968Z,28.31
2017-04-09T11:26:20.756Z,28.37
2017-04-09T11:28:45.560Z,28.46
2017-04-09T11:31:01.863Z,28.57
2017-04-09T11:33:26.662Z,28.64
2017-04-09T11:35:51.467Z,28.12
2017-04-09T11:38:16.259Z,27.53
2017-04-09T11:40:40.954Z,27.63
2017-04-09T11:43:05.765Z,27.76
2017-04-09T11:45:30.451Z,27.23
2017-04-09T11:47:55.148Z,27.97
2017-04-09T11:50:19.947Z,28.18
2017-04-09T11:52:44.665Z,27.63
2017-04-09T11:55:09.370Z,27.76
2017-04-09T11:57:34.063Z,27.95
2017-04-09T11:59:58.738Z,28.52
2017-04-09T12:02:23.426Z,27.91
2017-04-09T12:04:39.725Z,28.15
2017-04-09T12:06:41.260Z,28.18
2017-04-09T12:09:05.970Z,28.2
2017-04-09T12:11:22.269Z,27.71
2017-04-09T12:13:23.822Z,27.53
2017-04-09T12:15:48.535Z,27.72
2017-04-09T12:18:13.217Z,27.79
2017-04-09T12:20:37.914Z,27.45
2017-04-09T12:23:02.611Z,27.88
2017-04-09T12:25:27.303Z,28.01
2017-04-09T12:27:45.852Z,28.09
2017-04-09T12:30:10.544Z,28.04
2017-04-09T12:32:36.050Z,27.97
2017-04-09T12:34:51.449Z,27.98
2017-04-09T12:37:16.144Z,28.28
2017-04-09T12:39:40.839Z,27.83
2017-04-09T12:42:05.532Z,27.45
2017-04-09T12:44:30.242Z,27.35
2017-04-09T12:46:54.933Z,26.97
2017-04-09T12:49:19.629Z,26.39
2017-04-09T12:51:44.266Z,26.93
2017-04-09T12:54:08.818Z,27.22
2017-04-09T12:56:33.408Z,27.22
2017-04-09T12:58:58.005Z,27.61
2017-04-09T13:01:14.198Z,27.75
2017-04-09T13:03:38.809Z,27.71
2017-04-09T13:06:03.387Z,27.44
2017-04-09T13:08:04.890Z,27.33
2017-04-09T13:10:29.545Z,27.41
2017-04-09T13:12:54.126Z,27.58
2017-04-09T13:14:56.114Z,27.44
2017-04-09T13:17:12.288Z,27.15
2017-04-09T13:19:28.485Z,27.18
2017-04-09T13:21:53.107Z,26.93
2017-04-09T13:24:17.692Z,26.83
2017-04-09T13:26:42.162Z,26.81
2017-04-09T13:29:06.760Z,27.23
2017-04-09T13:31:25.829Z,27.07
2017-04-09T13:33:48.882Z,27.1
2017-04-09T13:36:13.471Z,27.43
2017-04-09T13:38:29.592Z,27.47
2017-04-09T13:40:54.148Z,27.83
2017-04-09T13:43:18.758Z,27.85
2017-04-09T13:45:35.880Z,27.76
2017-04-09T13:47:52.073Z,27.78
2017-04-09T13:50:16.675Z,27.97
2017-04-09T13:52:35.855Z,27.85
2017-04-09T13:55:00.533Z,28.06
2017-04-09T13:57:25.227Z,27.9
2017-04-09T13:59:26.758Z,27.71
2017-04-09T14:01:28.788Z,27.5
2017-04-09T14:03:53.390Z,27.11
2017-04-09T14:06:17.896Z,27.35
2017-04-09T14:08:42.398Z,27.23
2017-04-09T14:11:06.929Z,27.25
2017-04-09T14:13:31.436Z,27.04
2017-04-09T14:15:55.990Z,27.37
2017-04-09T14:18:20.521Z,27.3
2017-04-09T14:20:45.065Z,27.22
2017-04-09T14:23:09.621Z,26.97
2017-04-09T14:25:34.081Z,26.59
2017-04-09T14:27:58.556Z,26.86
2017-04-09T14:30:23.030Z,26.92
2017-04-09T14:32:47.575Z,27.03
2017-04-09T14:35:12.085Z,27.19
2017-04-09T14:37:36.596Z,27.25
2017-04-09T14:39:52.588Z,27.16
2017-04-09T14:42:17.061Z,27.05
2017-04-09T14:44:41.595Z,27.18
2017-04-09T14:47:06.036Z,27.34
2017-04-09T14:49:30.558Z,27.1
2017-04-09T14:51:55.011Z,27.18
2017-04-09T14:54:19.541Z,27.28
2017-04-09T14:56:44.015Z,26.86
2017-04-09T14:59:00.031Z,27.03
2017-04-09T15:01:24.512Z,27.29
2017-04-09T15:03:49.044Z,27.07
2017-04-09T15:06:13.573Z,27.18
2017-04-09T15:08:38.073Z,27.23
2017-04-09T15:11:03.371Z,27.1
2017-04-09T15:13:27.898Z,27.04
2017-04-09T15:15:52.390Z,27.19
2017-04-09T15:18:19.225Z,27.01
2017-04-09T15:20:43.875Z,26.93
2017-04-09T15:23:08.487Z,27.19
2017-04-09T15:25:10.404Z,27.15
2017-04-09T15:27:45.276Z,26.93
2017-04-09T15:30:16.882Z,26.97
2017-04-09T15:32:48.267Z,27.15
2017-04-09T15:35:12.904Z,27.23
2017-04-09T15:37:37.478Z,27.07
2017-04-09T15:40:03.229Z,26.93
2017-04-09T15:42:19.373Z,26.97
2017-04-09T15:44:43.964Z,26.92
2017-04-09T15:47:25.311Z,26.86
2017-04-09T15:49:49.974Z,26.92
2017-04-09T15:52:14.552Z,26.93
2017-04-09T15:54:46.528Z,26.78
2017-04-09T15:57:18.821Z,26.98
2017-04-09T15:59:43.838Z,27.11
2017-04-09T16:02:08.532Z,26.85
2017-04-09T16:04:33.324Z,27.15
2017-04-09T16:06:57.805Z,26.91
2017-04-09T16:09:25.419Z,26.93
2017-04-09T16:11:51.675Z,27.07
2017-04-09T16:14:20.684Z,27.08
2017-04-09T16:16:46.247Z,27.26
2017-04-09T16:21:15.488Z,27.13
2017-04-09T16:23:46.668Z,27.26
2017-04-09T16:26:19.906Z,26.83
2017-04-09T16:28:45.673Z,26.96
2017-04-09T16:31:12.167Z,27.19
2017-04-09T16:33:36.402Z,27.18
2017-04-09T16:36:03.681Z,27.22
2017-04-09T16:38:30.121Z,27.13
2017-04-09T16:40:58.623Z,27.29
2017-04-09T16:43:23.715Z,27.35
2017-04-09T16:45:48.345Z,27
2017-04-09T16:48:15.894Z,27.08
2017-04-09T16:50:40.763Z,27
2017-04-09T16:53:13.355Z,26.96
2017-04-09T16:55:39.404Z,26.86
2017-04-09T16:58:07.337Z,26.96
2017-04-09T17:00:36.827Z,26.89
2017-04-09T17:03:01.702Z,26.82
2017-04-09T17:05:27.302Z,26.83
2017-04-09T17:07:52.875Z,26.86
2017-04-09T17:10:17.880Z,26.44
2017-04-09T17:12:42.683Z,26.04
2017-04-09T17:14:18.403Z,25.96
2017-04-09T17:16:30.203Z,25.77
2017-04-09T17:18:15.036Z,25.63
2017-04-09T17:20:39.571Z,25.56
2017-04-09T17:23:04.052Z,25.62
2017-04-09T17:25:28.544Z,25.62
2017-04-09T17:27:53.040Z,25.73
2017-04-09T17:30:17.622Z,25.68
2017-04-09T17:32:41.912Z,25.68
2017-04-09T17:34:43.979Z,25.63
2017-04-09T17:37:08.571Z,25.52
2017-04-09T17:39:33.078Z,25.46
2017-04-09T17:41:43.600Z,25.52
2017-04-09T17:44:11.745Z,25.51
2017-04-09T17:46:36.310Z,25.4
2017-04-09T17:49:00.718Z,25.36
2017-04-09T17:51:25.186Z,25.12
2017-04-09T17:53:51.673Z,25.22
2017-04-09T17:56:16.441Z,24.99
2017-04-09T17:58:40.833Z,24.97
2017-04-09T18:01:05.207Z,24.93
2017-04-09T18:03:29.632Z,24.93
2017-04-09T18:05:53.982Z,24.94
2017-04-09T18:08:18.381Z,24.74
2017-04-09T18:10:49.429Z,24.62
2017-04-09T18:13:22.629Z,24.58
2017-04-09T18:16:04.903Z,24.48
2017-04-09T18:20:14.093Z,24.43
2017-04-09T18:22:43.178Z,24.32
2017-04-09T18:29:15.535Z,24.01
2017-04-09T18:31:43.108Z,23.86
2017-04-09T18:34:07.910Z,23.81
2017-04-09T18:36:34.152Z,23.63
2017-04-09T18:39:00.724Z,23.54
2017-04-09T18:41:27.380Z,23.34
2017-04-09T18:43:52.571Z,23.26
2017-04-09T18:46:34.793Z,23.33
2017-04-09T18:55:39.786Z,23.11
2017-04-09T18:58:15.953Z,23.01
2017-04-09T19:07:18.024Z,22.62
2017-04-09T19:09:45.209Z,22.56
2017-04-09T19:12:12.844Z,22.68
2017-04-09T19:16:25.731Z,22.51
2017-04-09T19:18:52.284Z,22.49
2017-04-09T19:21:19.390Z,22.44
2017-04-09T19:40:48.123Z,21.91
2017-04-09T19:43:16.465Z,21.88
2017-04-09T19:45:43.884Z,21.75
2017-04-09T19:48:12.103Z,21.56
2017-04-09T19:55:24.126Z,21.68
2017-04-09T19:57:51.197Z,21.48
2017-04-09T20:00:23.944Z,21.5
2017-04-09T20:02:48.268Z,21.4
2017-04-09T20:05:12.332Z,21.26
2017-04-09T20:06:48.185Z,21.33
2017-04-09T20:09:12.243Z,21.2
2017-04-09T20:11:36.345Z,21.19
2017-04-09T20:14:01.713Z,21.13
2017-04-09T20:16:30.039Z,21
2017-04-09T20:18:56.429Z,20.92
2017-04-09T20:21:27.932Z,20.77
2017-04-09T20:24:06.476Z,20.95
2017-04-09T20:26:35.141Z,20.8
2017-04-09T20:28:20.061Z,20.8
2017-04-09T20:30:35.652Z,20.68
2017-04-09T20:32:59.891Z,20.78
2017-04-09T20:35:23.823Z,20.66
2017-04-09T20:37:47.823Z,20.58
2017-04-09T20:40:11.783Z,20.6
2017-04-09T20:42:35.756Z,20.64
2017-04-09T20:44:51.337Z,20.55
2017-04-09T20:47:15.325Z,20.52
2017-04-09T20:49:39.400Z,20.44
2017-04-09T20:52:03.381Z,20.37
2017-04-09T20:54:27.475Z,20.37
2017-04-09T20:56:51.574Z,20.4
2017-04-09T20:58:27.849Z,20.32
2017-04-09T21:00:51.886Z,20.12
2017-04-09T21:03:16.993Z,20.02
2017-04-09T21:05:40.975Z,20.14
2017-04-09T21:08:04.952Z,20.04
2017-04-09T21:10:28.848Z,19.9
2017-04-09T21:14:28.943Z,19.92
2017-04-09T21:16:52.946Z,19.79
2017-04-09T21:19:16.931Z,19.74
2017-04-09T21:21:40.953Z,19.72
2017-04-09T21:23:42.697Z,19.85
2017-04-09T21:26:06.625Z,19.77
2017-04-09T21:28:30.522Z,19.67
2017-04-09T21:30:54.499Z,19.66
2017-04-09T21:33:18.374Z,19.64
2017-04-09T21:35:33.959Z,19.63
2017-04-09T21:37:57.834Z,19.66
2017-04-09T21:40:21.809Z,19.57
2017-04-09T21:42:47.227Z,19.6
2017-04-09T21:45:10.917Z,19.39
2017-04-09T21:47:34.940Z,19.3
2017-04-09T21:49:58.768Z,19.32
2017-04-09T21:52:22.752Z,19.39
2017-04-09T21:54:46.643Z,19.27
2017-04-09T21:57:10.501Z,19.34
2017-04-09T21:59:34.375Z,19.3
2017-04-09T22:01:58.273Z,19.2
2017-04-09T22:04:22.126Z,19.23
2017-04-09T22:06:46.023Z,19.19
2017-04-09T22:09:09.883Z,19.17
2017-04-09T22:11:33.757Z,19.04
2017-04-09T22:13:57.630Z,18.91
2017-04-09T22:16:21.430Z,19.04
2017-04-09T22:18:45.293Z,19.08
2017-04-09T22:21:09.187Z,18.98
2017-04-09T22:23:33.041Z,18.78
2017-04-09T22:25:57.975Z,18.97
2017-04-09T22:28:21.819Z,18.85
2017-04-09T22:30:45.714Z,18.83
2017-04-09T22:33:09.460Z,18.73
2017-04-09T22:35:34.377Z,18.64
2017-04-09T22:37:58.245Z,18.73
2017-04-09T22:40:08.520Z,18.71
2017-04-09T22:42:32.497Z,18.73
2017-04-09T22:44:56.380Z,18.67
2017-04-09T22:47:20.248Z,18.68
2017-04-09T22:49:44.127Z,18.58
2017-04-09T22:52:08.009Z,18.46
2017-04-09T22:54:31.917Z,18.52
2017-04-09T22:56:55.769Z,18.46
2017-04-09T22:59:19.646Z,18.53
2017-04-09T23:01:43.512Z,18.58
2017-04-09T23:04:07.389Z,18.46
2017-04-09T23:06:31.267Z,18.46
2017-04-09T23:08:55.134Z,18.42
2017-04-09T23:11:19.044Z,18.45
2017-04-09T23:13:42.909Z,18.43
2017-04-09T23:16:06.786Z,18.36
2017-04-09T23:18:30.660Z,18.39
2017-04-09T23:20:54.422Z,18.3
2017-04-09T23:23:18.208Z,18.21
2017-04-09T23:25:41.996Z,18.16
2017-04-09T23:28:05.739Z,17.95
2017-04-09T23:30:29.514Z,17.93
2017-04-09T23:32:53.314Z,17.91
2017-04-09T23:35:17.061Z,17.91
2017-04-09T23:37:40.900Z,17.87
2017-04-09T23:40:04.642Z,17.78
2017-04-09T23:42:28.385Z,17.73
2017-04-09T23:44:52.192Z,17.78
2017-04-09T23:47:15.883Z,17.66
2017-04-09T23:49:17.066Z,17.57
2017-04-09T23:51:40.858Z,17.44
2017-04-09T23:54:04.627Z,17.65
2017-04-09T23:56:06.480Z,17.47
2017-04-09T23:58:31.091Z,17.34
